Time;durP1;ratioP1;P1;durP2;ratioP2;P2;SDS_P1;SDS_P2;PMS_P1;PMS_P2;Temp;Humidity;BMP_temperature;BMP_pressure;BME280_temperature;BME280_humidity;BME280_pressure;Samples;Min_cycle;Max_cycle;Signal;HPM_P1;HPM_P2
2020/12/21 00:01:59;;;;;;;13.70;7.75;;;5.30;78.80;;;;;;5055147;28;20511;-61
2020/12/21 00:04:25;;;;;;;14.82;7.22;;;5.30;78.90;;;;;;5042026;28;20041;-60
2020/12/21 00:06:55;;;;;;;15.57;7.65;;;5.30;78.90;;;;;;5053917;28;20504;-61
2020/12/21 00:09:21;;;;;;;13.73;7.60;;;5.30;78.90;;;;;;5054374;28;20053;-61
2020/12/21 00:11:48;;;;;;;15.40;7.65;;;5.30;79.00;;;;;;5054362;28;20037;-61
2020/12/21 00:14:14;;;;;;;16.60;8.20;;;5.30;79.00;;;;;;5054910;28;20017;-59
2020/12/21 00:16:41;;;;;;;12.07;6.47;;;5.30;79.00;;;;;;5054636;28;20025;-61
2020/12/21 00:19:08;;;;;;;15.45;7.78;;;5.30;79.00;;;;;;5054798;28;20412;-60
2020/12/21 00:21:35;;;;;;;17.30;8.18;;;5.30;79.00;;;;;;5054279;28;20053;-59
2020/12/21 00:24:01;;;;;;;12.10;6.38;;;5.20;79.00;;;;;;5054407;28;20029;-58
2020/12/21 00:26:27;;;;;;;12.30;6.80;;;5.20;78.90;;;;;;5054762;28;20079;-59
2020/12/21 00:28:52;;;;;;;13.00;7.28;;;5.20;78.90;;;;;;5053786;28;20085;-59
2020/12/21 00:31:27;;;;;;;14.02;7.95;;;5.20;78.90;;;;;;5042066;28;20428;-60
2020/12/21 00:33:53;;;;;;;13.57;7.35;;;5.20;79.00;;;;;;5050269;28;20029;-61
2020/12/21 00:36:20;;;;;;;13.45;7.43;;;5.20;79.10;;;;;;5054404;28;20489;-61
2020/12/21 00:38:46;;;;;;;14.57;7.90;;;5.20;79.40;;;;;;5049645;28;20030;-61
2020/12/21 00:41:13;;;;;;;13.48;7.07;;;5.30;79.20;;;;;;5035401;28;20488;-58
2020/12/21 00:43:39;;;;;;;13.10;7.80;;;5.30;79.00;;;;;;5050402;28;20021;-59
2020/12/21 00:46:05;;;;;;;10.35;6.82;;;5.30;78.70;;;;;;5068176;28;20035;-59
2020/12/21 00:48:31;;;;;;;12.40;6.68;;;5.30;78.40;;;;;;5060374;28;20484;-59
2020/12/21 00:50:57;;;;;;;10.30;6.32;;;5.30;78.50;;;;;;5063042;28;20028;-59
2020/12/21 00:53:24;;;;;;;12.77;7.20;;;5.30;78.30;;;;;;5067321;28;20029;-59
2020/12/21 00:55:49;;;;;;;14.63;7.88;;;5.30;78.60;;;;;;5062280;28;20521;-57
2020/12/21 00:58:16;;;;;;;16.63;8.30;;;5.30;78.70;;;;;;5053851;28;20100;-59
2020/12/21 01:00:42;;;;;;;16.42;8.45;;;5.30;78.50;;;;;;5054134;28;20048;-61
2020/12/21 01:03:08;;;;;;;14.23;7.40;;;5.30;78.60;;;;;;5059720;28;20021;-59
2020/12/21 01:05:34;;;;;;;12.05;7.10;;;5.30;78.70;;;;;;5061828;28;20376;-59
2020/12/21 01:08:00;;;;;;;11.55;7.00;;;5.30;78.70;;;;;;5058925;28;20025;-59
2020/12/21 01:10:27;;;;;;;10.40;6.20;;;5.30;78.60;;;;;;5047767;28;20412;-61
2020/12/21 01:12:52;;;;;;;11.10;6.38;;;5.30;78.50;;;;;;5038703;28;20025;-59
2020/12/21 01:15:18;;;;;;;10.52;6.65;;;5.30;78.00;;;;;;5040146;28;20083;-58
2020/12/21 01:17:44;;;;;;;11.63;6.70;;;5.30;78.20;;;;;;5039508;28;20033;-59
2020/12/21 01:20:12;;;;;;;9.98;6.03;;;5.30;78.30;;;;;;5053707;28;20438;-59
2020/12/21 01:22:41;;;;;;;11.65;6.88;;;5.30;78.20;;;;;;5050202;28;20044;-58
2020/12/21 01:25:07;;;;;;;9.82;6.28;;;5.30;78.20;;;;;;5053256;28;20082;-59
2020/12/21 01:27:33;;;;;;;10.43;6.28;;;5.30;78.40;;;;;;5044887;28;20021;-59
2020/12/21 01:29:59;;;;;;;11.32;6.72;;;5.30;78.40;;;;;;5033778;28;20056;-58
2020/12/21 01:32:24;;;;;;;9.27;6.07;;;5.30;78.20;;;;;;5052908;28;20635;-59
2020/12/21 01:34:50;;;;;;;12.50;6.20;;;5.30;78.30;;;;;;5053200;28;20036;-59
2020/12/21 01:37:16;;;;;;;10.30;6.47;;;5.30;78.00;;;;;;5047775;28;20029;-61
2020/12/21 01:39:48;;;;;;;8.82;5.50;;;5.30;78.10;;;;;;5043445;28;20103;-61
2020/12/21 01:42:17;;;;;;;9.63;5.82;;;5.30;77.90;;;;;;5038091;28;20059;-58
2020/12/21 01:44:49;;;;;;;9.82;6.18;;;5.20;78.00;;;;;;5043168;28;20029;-58
2020/12/21 01:47:16;;;;;;;10.82;6.85;;;5.20;78.00;;;;;;5034872;28;20064;-59
2020/12/21 01:49:43;;;;;;;7.65;5.88;;;5.20;78.10;;;;;;5052581;28;20029;-59
2020/12/21 01:52:09;;;;;;;12.38;8.10;;;5.20;77.90;;;;;;5051956;28;20080;-61
2020/12/21 01:54:36;;;;;;;11.65;7.55;;;5.20;78.10;;;;;;5066856;28;20550;-61
2020/12/21 01:57:02;;;;;;;11.48;7.35;;;5.10;78.20;;;;;;5042072;28;20489;-58
2020/12/21 01:59:28;;;;;;;11.57;7.10;;;5.10;78.30;;;;;;5065426;28;20025;-59
2020/12/21 02:01:55;;;;;;;14.00;8.65;;;5.10;78.30;;;;;;5063736;28;20017;-58
2020/12/21 02:04:21;;;;;;;13.80;8.10;;;5.20;78.30;;;;;;5051823;28;20029;-58
2020/12/21 02:06:48;;;;;;;15.48;7.63;;;5.20;78.10;;;;;;5051981;28;20064;-59
2020/12/21 02:09:15;;;;;;;19.45;9.05;;;5.20;78.20;;;;;;5051774;28;20047;-59
2020/12/21 02:11:42;;;;;;;12.18;6.80;;;5.20;78.00;;;;;;5052050;28;20028;-61
2020/12/21 02:14:09;;;;;;;18.58;8.48;;;5.20;78.20;;;;;;5052426;28;20056;-61
2020/12/21 02:16:35;;;;;;;18.27;7.28;;;5.10;78.30;;;;;;5050873;28;20083;-61
2020/12/21 02:19:01;;;;;;;14.13;8.13;;;5.10;78.30;;;;;;5051704;28;20462;-61
2020/12/21 02:21:27;;;;;;;20.10;8.80;;;5.10;78.00;;;;;;5044956;28;20020;-61
2020/12/21 02:23:52;;;;;;;13.85;7.57;;;5.10;78.30;;;;;;5043523;28;20034;-61
2020/12/21 02:26:18;;;;;;;14.05;7.15;;;5.10;78.40;;;;;;5032148;28;20035;-61
2020/12/21 02:28:53;;;;;;;16.35;6.75;;;5.10;78.20;;;;;;5052129;28;20092;-59
2020/12/21 02:31:19;;;;;;;14.88;7.53;;;5.10;78.30;;;;;;5052115;28;20025;-59
2020/12/21 02:33:47;;;;;;;16.17;7.85;;;5.10;78.30;;;;;;5051628;28;20154;-61
2020/12/21 02:36:14;;;;;;;15.00;8.30;;;5.10;78.50;;;;;;5052121;28;20111;-61
2020/12/21 02:38:40;;;;;;;13.98;8.35;;;5.10;78.80;;;;;;5049487;28;20025;-58
2020/12/21 02:41:07;;;;;;;22.67;8.30;;;5.10;78.80;;;;;;5051944;28;20369;-59
2020/12/21 02:43:32;;;;;;;15.93;8.38;;;5.10;78.70;;;;;;5051378;28;20032;-57
2020/12/21 02:45:58;;;;;;;16.02;7.45;;;5.10;78.60;;;;;;5051618;28;20029;-61
2020/12/21 02:48:24;;;;;;;19.35;9.07;;;5.10;78.50;;;;;;5051011;28;20500;-61
2020/12/21 02:50:50;;;;;;;20.25;8.77;;;5.10;78.60;;;;;;5038504;28;20033;-61
2020/12/21 02:53:16;;;;;;;19.33;8.15;;;5.10;78.70;;;;;;5058339;28;20047;-61
2020/12/21 02:55:43;;;;;;;16.08;8.60;;;5.10;78.80;;;;;;5052173;28;20025;-62
2020/12/21 02:58:08;;;;;;;17.15;8.38;;;5.10;78.80;;;;;;5051615;28;20023;-61
2020/12/21 03:00:34;;;;;;;18.95;7.72;;;5.10;78.70;;;;;;5051166;28;20025;-61
2020/12/21 03:03:01;;;;;;;19.50;8.45;;;5.10;78.50;;;;;;5051273;28;20029;-59
2020/12/21 03:05:27;;;;;;;19.02;7.75;;;5.10;78.50;;;;;;5051833;28;20025;-59
2020/12/21 03:07:53;;;;;;;13.77;6.90;;;5.10;78.70;;;;;;5045789;28;20084;-59
2020/12/21 03:10:18;;;;;;;26.40;9.05;;;5.10;78.80;;;;;;5046906;28;20056;-59
2020/12/21 03:12:44;;;;;;;28.23;8.18;;;5.10;78.80;;;;;;5046649;28;20021;-58
2020/12/21 03:15:10;;;;;;;20.85;8.38;;;5.10;78.60;;;;;;5042181;28;20354;-59
2020/12/21 03:17:35;;;;;;;18.33;7.10;;;5.10;78.60;;;;;;5051089;28;20035;-61
2020/12/21 03:20:01;;;;;;;16.10;7.47;;;5.10;78.70;;;;;;5046842;28;20017;-62
2020/12/21 03:22:27;;;;;;;28.13;8.18;;;5.10;78.70;;;;;;5042979;28;20358;-61
2020/12/21 03:24:52;;;;;;;26.30;8.50;;;5.00;78.60;;;;;;5051359;28;20129;-60
2020/12/21 03:27:18;;;;;;;25.77;8.23;;;5.00;78.80;;;;;;5051750;28;20078;-61
2020/12/21 03:29:44;;;;;;;54.17;9.43;;;5.00;78.80;;;;;;5047253;28;20059;-61
2020/12/21 03:32:10;;;;;;;18.98;8.15;;;5.00;79.00;;;;;;5034490;28;20025;-61
2020/12/21 03:34:36;;;;;;;29.10;8.82;;;5.00;79.00;;;;;;5035150;28;20061;-61
2020/12/21 03:37:01;;;;;;;19.65;7.38;;;5.00;79.10;;;;;;5048291;28;20033;-61
2020/12/21 03:39:27;;;;;;;23.50;9.27;;;5.00;79.00;;;;;;5045757;28;20079;-61
2020/12/21 03:41:53;;;;;;;28.10;7.88;;;5.00;79.10;;;;;;5037581;28;20080;-61
2020/12/21 03:44:18;;;;;;;20.98;8.15;;;5.00;79.10;;;;;;5034954;28;20092;-61
2020/12/21 03:46:44;;;;;;;22.60;7.82;;;4.90;79.00;;;;;;5034666;28;20025;-61
2020/12/21 03:49:10;;;;;;;23.92;8.13;;;4.90;79.10;;;;;;5028680;28;20018;-61
2020/12/21 03:51:35;;;;;;;18.88;7.15;;;4.90;79.20;;;;;;5027922;28;20025;-61
2020/12/21 03:54:01;;;;;;;19.80;7.60;;;4.90;79.20;;;;;;5048875;28;20056;-61
2020/12/21 03:56:27;;;;;;;14.95;7.97;;;4.90;79.20;;;;;;5035299;28;20018;-61
2020/12/21 03:58:52;;;;;;;31.25;13.40;;;4.80;79.20;;;;;;5035100;28;20021;-62
2020/12/21 04:01:18;;;;;;;31.02;14.32;;;4.80;79.20;;;;;;5034477;28;20017;-62
2020/12/21 04:03:44;;;;;;;31.50;14.32;;;4.80;79.30;;;;;;5035632;28;20369;-62
2020/12/21 04:06:09;;;;;;;30.40;14.43;;;4.80;78.80;;;;;;5033080;28;20033;-62
2020/12/21 04:08:35;;;;;;;31.98;13.75;;;4.70;78.10;;;;;;5022256;28;20048;-61
2020/12/21 04:11:01;;;;;;;33.58;14.48;;;4.50;77.70;;;;;;5035481;28;20049;-61
2020/12/21 04:13:27;;;;;;;34.55;15.07;;;4.30;78.60;;;;;;5034405;28;20021;-61
2020/12/21 04:15:53;;;;;;;35.90;14.15;;;4.20;78.40;;;;;;5035069;28;20028;-61
2020/12/21 04:18:19;;;;;;;30.42;13.90;;;4.10;78.70;;;;;;5034285;28;20105;-61
2020/12/21 04:20:46;;;;;;;29.88;13.18;;;4.10;79.00;;;;;;5024554;28;20029;-61
2020/12/21 04:23:11;;;;;;;25.75;12.50;;;4.00;78.80;;;;;;5048624;28;20419;-60
2020/12/21 04:25:37;;;;;;;40.28;16.08;;;3.80;78.70;;;;;;5055110;28;20025;-59
2020/12/21 04:28:03;;;;;;;32.63;13.52;;;3.70;79.20;;;;;;5043123;28;20059;-60
2020/12/21 04:30:29;;;;;;;31.80;14.32;;;3.70;79.60;;;;;;5053978;28;20039;-61
2020/12/21 04:32:54;;;;;;;31.55;13.25;;;3.60;79.90;;;;;;5055084;28;20028;-61
2020/12/21 04:35:20;;;;;;;50.20;16.45;;;3.60;79.80;;;;;;5048857;28;20013;-61
2020/12/21 04:37:46;;;;;;;36.35;14.60;;;3.50;80.00;;;;;;5045406;28;20079;-60
2020/12/21 04:40:12;;;;;;;26.73;12.45;;;3.50;80.30;;;;;;5052852;28;20032;-61
2020/12/21 04:42:48;;;;;;;28.58;13.02;;;3.40;80.40;;;;;;5053955;28;20457;-61
2020/12/21 04:45:14;;;;;;;34.50;13.77;;;3.40;80.40;;;;;;5054737;28;20063;-60
2020/12/21 04:47:43;;;;;;;36.13;15.30;;;3.40;80.50;;;;;;5045426;28;20458;-60
2020/12/21 04:50:15;;;;;;;28.77;13.65;;;3.40;80.50;;;;;;5048259;28;20033;-61
2020/12/21 04:52:51;;;;;;;30.08;14.55;;;3.30;80.70;;;;;;5044907;28;20075;-59
2020/12/21 04:55:22;;;;;;;34.60;17.15;;;3.40;80.90;;;;;;5064630;28;20036;-60
2020/12/21 04:57:58;;;;;;;32.92;16.60;;;3.30;80.80;;;;;;5050861;28;20024;-61
2020/12/21 05:00:25;;;;;;;36.05;17.02;;;3.30;80.70;;;;;;5043670;28;20029;-60
2020/12/21 05:02:52;;;;;;;32.13;16.33;;;3.30;80.50;;;;;;5052895;28;20029;-61
2020/12/21 05:05:34;;;;;;;28.42;13.63;;;3.20;80.50;;;;;;5053564;28;20028;-61
2020/12/21 05:08:10;;;;;;;28.75;14.10;;;3.20;80.90;;;;;;5053756;28;21853;-60
2020/12/21 05:10:37;;;;;;;29.40;14.35;;;3.20;80.80;;;;;;5053729;28;20052;-60
2020/12/21 05:13:04;;;;;;;25.33;14.07;;;3.20;80.90;;;;;;5050471;28;20108;-61
2020/12/21 05:15:30;;;;;;;22.35;12.23;;;3.20;80.60;;;;;;5041403;28;20112;-61
2020/12/21 05:18:06;;;;;;;23.23;13.15;;;3.10;80.10;;;;;;5052704;28;20070;-59
2020/12/21 05:20:34;;;;;;;19.90;11.77;;;3.10;80.10;;;;;;5053966;28;20043;-60
2020/12/21 05:23:00;;;;;;;27.52;13.38;;;3.00;80.20;;;;;;5052884;28;20457;-61
2020/12/21 05:25:26;;;;;;;25.25;13.07;;;3.00;80.60;;;;;;5053294;28;20079;-59
2020/12/21 05:27:52;;;;;;;23.67;12.43;;;3.00;80.80;;;;;;5053087;28;20104;-60
2020/12/21 05:30:18;;;;;;;23.85;13.00;;;3.10;80.90;;;;;;5046660;28;20116;-61
2020/12/21 05:32:44;;;;;;;22.00;12.68;;;3.10;80.20;;;;;;5030810;28;20041;-60
2020/12/21 05:35:11;;;;;;;22.15;12.40;;;3.00;79.60;;;;;;5021952;28;20025;-61
2020/12/21 05:37:39;;;;;;;22.20;12.45;;;2.90;79.60;;;;;;5052648;28;20024;-60
2020/12/21 05:40:07;;;;;;;25.40;13.40;;;2.80;79.70;;;;;;5036432;28;20025;-60
2020/12/21 05:42:35;;;;;;;25.90;12.95;;;2.80;79.90;;;;;;5033198;28;20014;-61
2020/12/21 05:45:06;;;;;;;24.25;13.00;;;2.80;79.90;;;;;;5031817;28;20029;-61
2020/12/21 05:47:33;;;;;;;21.75;13.05;;;2.70;80.00;;;;;;5023943;28;20075;-61
2020/12/21 05:49:59;;;;;;;23.90;12.15;;;2.70;80.00;;;;;;5032835;28;20064;-61
2020/12/21 05:52:36;;;;;;;23.98;12.20;;;2.70;80.30;;;;;;5036214;28;20031;-61
2020/12/21 05:55:06;;;;;;;23.23;12.20;;;2.70;80.40;;;;;;5019848;28;20037;-60
2020/12/21 05:57:32;;;;;;;25.90;13.27;;;2.60;80.40;;;;;;5031948;28;20032;-61
2020/12/21 06:00:00;;;;;;;22.75;12.10;;;2.70;80.30;;;;;;5043632;28;20417;-61
2020/12/21 06:02:30;;;;;;;23.35;12.45;;;2.60;80.30;;;;;;5019037;28;20137;-61
2020/12/21 06:05:16;;;;;;;19.60;11.65;;;2.60;80.00;;;;;;5014481;28;20034;-61
2020/12/21 06:07:49;;;;;;;21.73;11.45;;;2.50;79.90;;;;;;5026335;28;20044;-61
2020/12/21 06:10:15;;;;;;;19.63;11.05;;;2.50;79.80;;;;;;5012630;28;20108;-61
2020/12/21 06:12:47;;;;;;;20.05;11.07;;;2.50;80.00;;;;;;5025879;28;20136;-60
2020/12/21 06:15:15;;;;;;;;;;;2.50;80.10;;;;;;5036026;28;20028;-61
2020/12/21 06:17:40;;;;;;;14.18;8.52;;;2.40;79.50;;;;;;5019989;28;19971;-61
2020/12/21 06:20:10;;;;;;;15.75;9.25;;;2.40;79.70;;;;;;5030004;28;20029;-61
2020/12/21 06:22:37;;;;;;;14.43;8.73;;;2.40;79.80;;;;;;5026443;28;20101;-60
2020/12/21 06:25:07;;;;;;;15.30;8.27;;;2.30;79.50;;;;;;5020036;28;20068;-60
2020/12/21 06:27:41;;;;;;;16.75;9.85;;;2.30;79.20;;;;;;5014162;28;20124;-61
2020/12/21 06:30:08;;;;;;;16.42;9.23;;;2.30;78.90;;;;;;5039505;28;20489;-61
2020/12/21 06:32:35;;;;;;;14.40;8.23;;;2.20;78.70;;;;;;5046668;28;20031;-61
2020/12/21 06:35:03;;;;;;;16.63;8.70;;;2.20;78.60;;;;;;5042369;28;20052;-61
2020/12/21 06:37:29;;;;;;;15.55;8.00;;;2.20;78.10;;;;;;5044294;28;20025;-59
2020/12/21 06:40:05;;;;;;;14.20;7.75;;;2.10;78.30;;;;;;5051490;28;20021;-61
2020/12/21 06:42:31;;;;;;;14.07;8.60;;;2.10;78.10;;;;;;5045274;28;20033;-63
2020/12/21 06:44:57;;;;;;;15.80;8.65;;;2.00;78.10;;;;;;5042670;28;20025;-60
2020/12/21 06:47:25;;;;;;;16.77;9.35;;;2.00;77.90;;;;;;5038197;28;20034;-58
2020/12/21 06:49:52;;;;;;;17.85;12.35;;;2.00;78.00;;;;;;5046187;28;20036;-57
2020/12/21 06:52:19;;;;;;;17.52;8.93;;;2.00;78.00;;;;;;5047943;28;20029;-57
2020/12/21 06:54:45;;;;;;;16.23;9.52;;;1.90;78.80;;;;;;5043548;28;20037;-59
2020/12/21 06:57:11;;;;;;;22.27;9.70;;;1.90;78.20;;;;;;5045368;28;20025;-57
2020/12/21 06:59:37;;;;;;;14.15;9.05;;;1.90;78.20;;;;;;5045962;28;20029;-58
2020/12/21 07:02:04;;;;;;;14.65;8.63;;;1.90;78.00;;;;;;5042725;28;20040;-58
2020/12/21 07:04:32;;;;;;;15.70;11.00;;;1.90;77.70;;;;;;5034838;28;20049;-57
2020/12/21 07:07:02;;;;;;;14.80;9.10;;;1.90;77.90;;;;;;5045825;28;20384;-59
2020/12/21 07:09:37;;;;;;;13.90;8.65;;;1.90;78.10;;;;;;5049469;28;20115;-57
2020/12/21 07:12:07;;;;;;;14.93;10.02;;;1.90;78.10;;;;;;5047572;28;20033;-58
2020/12/21 07:14:39;;;;;;;14.52;8.90;;;2.00;78.20;;;;;;5043336;28;20117;-58
2020/12/21 07:17:05;;;;;;;15.57;9.15;;;2.00;77.80;;;;;;5048841;28;20520;-59
2020/12/21 07:19:35;;;;;;;15.05;9.48;;;2.10;78.10;;;;;;5040341;28;20478;-59
2020/12/21 07:22:03;;;;;;;15.00;9.43;;;2.10;78.20;;;;;;5048334;28;20728;-59
2020/12/21 07:24:29;;;;;;;17.88;9.80;;;2.10;78.20;;;;;;5041926;28;20040;-59
2020/12/21 07:26:55;;;;;;;14.20;8.48;;;2.20;78.00;;;;;;5040463;28;20029;-58
2020/12/21 07:29:21;;;;;;;12.95;8.75;;;2.20;78.00;;;;;;5045651;28;20037;-59
2020/12/21 07:31:47;;;;;;;14.38;8.43;;;2.30;77.70;;;;;;5041051;28;20033;-59
2020/12/21 07:34:13;;;;;;;14.02;7.90;;;2.30;77.60;;;;;;5045012;28;20029;-60
2020/12/21 07:36:39;;;;;;;13.30;9.02;;;2.30;77.60;;;;;;5040969;28;20033;-59
2020/12/21 07:39:09;;;;;;;15.25;9.18;;;2.30;77.50;;;;;;5034419;28;20099;-58
2020/12/21 07:41:37;;;;;;;20.80;14.48;;;2.30;77.70;;;;;;5047351;28;20028;-57
2020/12/21 07:44:35;;;;;;;19.52;9.93;;;2.30;77.80;;;;;;5051821;28;20028;-59
2020/12/21 07:47:11;;;;;;;15.10;8.73;;;2.30;77.20;;;;;;5016997;28;20029;-59
2020/12/21 07:49:38;;;;;;;11.13;7.38;;;2.30;77.20;;;;;;5038237;28;20539;-58
2020/12/21 07:52:06;;;;;;;14.43;8.55;;;2.40;77.40;;;;;;5038564;28;20029;-58
2020/12/21 07:54:38;;;;;;;14.90;8.88;;;2.40;76.80;;;;;;5045381;28;20029;-59
2020/12/21 07:57:09;;;;;;;14.43;8.50;;;2.40;76.10;;;;;;5041071;28;20032;-59
2020/12/21 07:59:35;;;;;;;14.13;9.20;;;2.40;75.90;;;;;;5039159;28;20032;-59
2020/12/21 08:02:03;;;;;;;12.88;8.05;;;2.30;75.50;;;;;;5036398;28;20029;-59
2020/12/21 08:04:29;;;;;;;13.35;7.95;;;2.30;75.50;;;;;;5039889;28;20025;-59
2020/12/21 08:07:11;;;;;;;14.02;7.95;;;2.20;75.90;;;;;;5038252;28;20032;-60
2020/12/21 08:09:37;;;;;;;14.05;8.43;;;2.20;75.90;;;;;;5044010;28;20399;-59
2020/12/21 08:12:11;;;;;;;17.67;8.23;;;2.20;75.90;;;;;;5038991;28;20060;-58
2020/12/21 08:14:37;;;;;;;13.52;7.57;;;2.20;75.50;;;;;;5032193;28;23233;-59
2020/12/21 08:17:16;;;;;;;13.80;8.07;;;2.20;76.10;;;;;;5036864;28;20029;-59
2020/12/21 08:20:06;;;;;;;12.90;7.95;;;2.30;76.40;;;;;;5035698;28;20025;-59
2020/12/21 08:22:32;;;;;;;15.85;9.00;;;2.40;76.00;;;;;;5029391;28;20041;-59
2020/12/21 08:25:12;;;;;;;15.88;9.05;;;2.40;75.80;;;;;;5041107;28;20425;-59
2020/12/21 08:27:41;;;;;;;14.63;8.48;;;2.40;75.60;;;;;;5040752;28;20037;-59
2020/12/21 08:30:12;;;;;;;12.63;7.93;;;2.40;75.70;;;;;;5041385;28;20443;-59
2020/12/21 08:32:38;;;;;;;14.10;8.50;;;2.40;75.50;;;;;;5037660;28;20036;-58
2020/12/21 08:35:05;;;;;;;14.23;9.15;;;2.40;75.50;;;;;;5040708;28;20029;-58
2020/12/21 08:37:30;;;;;;;15.02;8.68;;;2.40;75.30;;;;;;5043238;28;20075;-59
2020/12/21 08:39:56;;;;;;;19.10;9.00;;;2.40;75.80;;;;;;5041350;28;20037;-58
2020/12/21 08:42:22;;;;;;;15.15;8.85;;;2.40;75.60;;;;;;5038276;28;20103;-58
2020/12/21 08:44:50;;;;;;;10.45;7.35;;;2.40;75.70;;;;;;5042745;28;20090;-59
2020/12/21 08:47:17;;;;;;;15.38;8.32;;;2.40;75.70;;;;;;5037502;28;20895;-59
2020/12/21 08:49:43;;;;;;;15.20;8.18;;;2.50;76.30;;;;;;5035534;28;20032;-58
2020/12/21 08:52:08;;;;;;;12.95;8.05;;;2.50;76.10;;;;;;5036606;28;20048;-58
2020/12/21 08:54:34;;;;;;;11.82;7.65;;;2.70;76.00;;;;;;5029194;28;20123;-59
2020/12/21 08:57:00;;;;;;;12.73;7.80;;;2.70;75.70;;;;;;5038331;28;20051;-60
2020/12/21 08:59:25;;;;;;;10.27;7.28;;;2.70;75.30;;;;;;5029007;28;20539;-59
2020/12/21 09:01:51;;;;;;;9.23;6.20;;;2.70;74.70;;;;;;5029770;28;20037;-58
2020/12/21 09:04:17;;;;;;;8.32;5.72;;;2.70;75.00;;;;;;5037088;28;20122;-57
2020/12/21 09:06:43;;;;;;;9.77;5.90;;;2.80;75.20;;;;;;5038453;28;20399;-59
2020/12/21 09:09:10;;;;;;;8.63;5.65;;;2.90;75.50;;;;;;5035018;28;20136;-58
2020/12/21 09:11:36;;;;;;;8.65;5.80;;;2.90;75.40;;;;;;5041374;28;20036;-58
2020/12/21 09:14:02;;;;;;;8.90;5.43;;;3.00;75.00;;;;;;5032919;28;20029;-59
2020/12/21 09:16:29;;;;;;;7.55;5.03;;;3.10;74.90;;;;;;5040276;28;20079;-59
2020/12/21 09:18:56;;;;;;;10.15;5.47;;;3.10;73.80;;;;;;5037392;28;20037;-58
2020/12/21 09:21:30;;;;;;;9.02;5.35;;;3.10;72.70;;;;;;5037207;28;20454;-58
2020/12/21 09:23:57;;;;;;;8.40;5.57;;;3.00;72.90;;;;;;5037380;28;20020;-59
2020/12/21 09:26:24;;;;;;;8.82;5.55;;;2.90;73.50;;;;;;5034640;28;20025;-59
2020/12/21 09:28:51;;;;;;;6.57;4.40;;;2.90;73.50;;;;;;5032444;28;20131;-58
2020/12/21 09:31:19;;;;;;;5.25;4.05;;;3.00;73.70;;;;;;5039958;28;20392;-60
2020/12/21 09:33:45;;;;;;;7.70;5.10;;;3.00;73.80;;;;;;5035724;28;20068;-59
2020/12/21 09:36:12;;;;;;;6.30;4.68;;;3.10;73.60;;;;;;5037494;28;20127;-59
2020/12/21 09:38:38;;;;;;;6.88;4.82;;;3.10;73.40;;;;;;5036945;28;20116;-59
2020/12/21 09:41:04;;;;;;;7.22;5.07;;;3.20;73.20;;;;;;5040648;28;20444;-59
2020/12/21 09:43:31;;;;;;;7.50;4.93;;;3.20;73.00;;;;;;5036461;28;20033;-59
2020/12/21 09:45:57;;;;;;;8.75;5.70;;;3.20;72.80;;;;;;5034432;28;20090;-59
2020/12/21 09:48:23;;;;;;;8.10;5.63;;;3.20;72.60;;;;;;5032456;28;20045;-58
2020/12/21 09:50:48;;;;;;;7.43;5.13;;;3.10;72.50;;;;;;5032987;28;20025;-59
2020/12/21 09:53:16;;;;;;;8.68;5.78;;;3.00;71.20;;;;;;5034302;28;20106;-59
2020/12/21 09:55:42;;;;;;;8.02;5.68;;;2.80;70.80;;;;;;5036808;28;20037;-59
2020/12/21 09:58:08;;;;;;;10.05;6.28;;;2.60;70.70;;;;;;5038557;28;20025;-60
2020/12/21 10:00:34;;;;;;;7.20;5.50;;;2.40;71.70;;;;;;5036572;28;20032;-59
2020/12/21 10:02:59;;;;;;;8.00;5.50;;;2.30;72.20;;;;;;5034665;28;20021;-58
2020/12/21 10:05:25;;;;;;;9.82;6.13;;;2.20;72.80;;;;;;5035712;28;20052;-57
2020/12/21 10:07:51;;;;;;;6.70;5.07;;;2.20;73.10;;;;;;5036129;28;20409;-59
2020/12/21 10:10:16;;;;;;;7.68;5.72;;;2.30;73.60;;;;;;5037031;28;20030;-57
2020/12/21 10:12:42;;;;;;;7.60;5.85;;;2.30;72.70;;;;;;5035970;28;20055;-58
2020/12/21 10:15:08;;;;;;;8.43;5.70;;;2.30;72.20;;;;;;5030431;28;20040;-58
2020/12/21 10:17:34;;;;;;;8.32;6.35;;;2.20;72.00;;;;;;5031967;28;20071;-60
2020/12/21 10:19:59;;;;;;;6.88;5.30;;;2.10;71.70;;;;;;5040378;28;20028;-59
2020/12/21 10:22:25;;;;;;;10.80;5.88;;;2.10;72.20;;;;;;5036460;28;20036;-59
2020/12/21 10:24:51;;;;;;;8.25;5.80;;;2.00;72.20;;;;;;5018458;28;20033;-59
2020/12/21 10:27:17;;;;;;;7.10;5.70;;;2.00;71.70;;;;;;5038615;28;20043;-59
2020/12/21 10:29:42;;;;;;;7.50;5.60;;;1.90;71.70;;;;;;5017840;28;20072;-59
2020/12/21 10:32:09;;;;;;;6.38;5.50;;;1.80;71.80;;;;;;5013726;28;20397;-60
2020/12/21 10:34:34;;;;;;;7.30;5.60;;;1.80;72.10;;;;;;5014875;28;20033;-59
2020/12/21 10:37:00;;;;;;;7.90;5.45;;;1.80;71.80;;;;;;5022836;28;20030;-59
2020/12/21 10:39:26;;;;;;;7.18;5.00;;;1.80;71.40;;;;;;5016010;28;20029;-59
2020/12/21 10:41:52;;;;;;;5.88;5.20;;;1.70;71.30;;;;;;5025989;28;20030;-59
2020/12/21 10:44:18;;;;;;;5.63;4.78;;;1.60;71.30;;;;;;5024716;28;20056;-59
2020/12/21 10:46:44;;;;;;;6.20;4.72;;;1.60;71.70;;;;;;5022427;28;20034;-59
2020/12/21 10:49:10;;;;;;;6.45;5.03;;;1.60;71.80;;;;;;5020136;28;20102;-58
2020/12/21 10:51:36;;;;;;;6.10;4.90;;;1.50;71.80;;;;;;5023496;28;20470;-59
2020/12/21 10:54:03;;;;;;;5.97;4.55;;;1.50;71.50;;;;;;5025707;28;20025;-59
2020/12/21 10:56:29;;;;;;;7.65;4.88;;;1.40;72.00;;;;;;5025057;28;20028;-59
2020/12/21 10:58:56;;;;;;;6.13;4.82;;;1.50;72.50;;;;;;5022486;28;20509;-59
2020/12/21 11:01:21;;;;;;;6.47;5.10;;;1.50;72.10;;;;;;5025179;28;20029;-59
2020/12/21 11:03:47;;;;;;;6.30;5.07;;;1.50;71.40;;;;;;5025839;28;20430;-59
2020/12/21 11:06:20;;;;;;;7.03;4.95;;;1.50;71.40;;;;;;5020500;28;20029;-59
2020/12/21 11:08:46;;;;;;;5.57;4.95;;;1.40;71.10;;;;;;5023556;28;20121;-58
2020/12/21 11:11:12;;;;;;;4.55;4.10;;;1.30;71.00;;;;;;5021411;28;20120;-59
2020/12/21 11:13:41;;;;;;;5.72;4.78;;;1.20;71.60;;;;;;5025711;28;20061;-59
2020/12/21 11:16:09;;;;;;;5.82;4.80;;;1.30;72.30;;;;;;5022297;28;20032;-59
2020/12/21 11:18:35;;;;;;;4.95;4.03;;;1.30;72.10;;;;;;5023143;28;20030;-59
2020/12/21 11:21:00;;;;;;;5.68;4.65;;;1.50;72.70;;;;;;5028229;28;20029;-59
2020/12/21 11:23:26;;;;;;;7.68;5.25;;;1.60;72.70;;;;;;5027337;28;20060;-59
2020/12/21 11:25:52;;;;;;;6.93;4.82;;;1.70;72.50;;;;;;5024779;28;20375;-59
2020/12/21 11:28:17;;;;;;;5.13;4.47;;;1.80;71.60;;;;;;5031276;28;20079;-59
2020/12/21 11:30:43;;;;;;;5.70;4.40;;;1.80;71.40;;;;;;5044226;28;20032;-59
2020/12/21 11:33:09;;;;;;;6.10;5.43;;;1.80;71.50;;;;;;5044745;28;20111;-58
2020/12/21 11:35:34;;;;;;;4.85;4.32;;;1.90;71.30;;;;;;5042208;28;20102;-59
2020/12/21 11:38:01;;;;;;;6.88;5.20;;;1.90;70.60;;;;;;5039529;28;20436;-59
2020/12/21 11:40:27;;;;;;;6.95;5.55;;;1.80;70.30;;;;;;5040345;28;20040;-59
2020/12/21 11:42:53;;;;;;;8.15;5.57;;;1.80;70.00;;;;;;5038900;28;20374;-60
2020/12/21 11:45:18;;;;;;;8.77;6.00;;;1.70;70.70;;;;;;5043622;28;20955;-58
2020/12/21 11:47:44;;;;;;;6.15;5.10;;;1.70;70.80;;;;;;5041760;28;20072;-59
2020/12/21 11:50:10;;;;;;;6.43;5.38;;;1.70;70.70;;;;;;5042453;28;20477;-58
2020/12/21 11:52:35;;;;;;;6.72;5.55;;;1.70;70.90;;;;;;5037246;28;20140;-58
2020/12/21 11:55:01;;;;;;;5.90;5.07;;;1.70;70.50;;;;;;5041309;28;20036;-59
2020/12/21 11:57:28;;;;;;;7.10;4.80;;;1.60;70.30;;;;;;5033974;28;20048;-56
2020/12/21 11:59:55;;;;;;;7.20;5.65;;;1.60;70.60;;;;;;5037869;28;20044;-57
2020/12/21 12:02:21;;;;;;;6.43;5.43;;;1.60;70.70;;;;;;5037990;28;20033;-57
2020/12/21 12:04:46;;;;;;;8.48;6.10;;;1.50;70.10;;;;;;5035318;28;20064;-56
2020/12/21 12:07:12;;;;;;;6.65;5.15;;;1.40;70.10;;;;;;5037567;28;20040;-55
2020/12/21 12:09:38;;;;;;;6.78;5.38;;;1.30;70.00;;;;;;5038765;28;20029;-55
2020/12/21 12:12:04;;;;;;;6.60;5.22;;;1.10;70.30;;;;;;5036964;28;20041;-52
2020/12/21 12:14:29;;;;;;;6.00;4.82;;;1.10;70.90;;;;;;5033180;28;20032;-53
2020/12/21 12:16:56;;;;;;;5.82;4.72;;;1.10;71.50;;;;;;5034720;28;20025;-56
2020/12/21 12:19:22;;;;;;;7.47;5.65;;;1.20;71.70;;;;;;5037531;28;20661;-56
2020/12/21 12:21:49;;;;;;;7.50;5.13;;;1.20;71.40;;;;;;5032709;28;20037;-55
2020/12/21 12:24:14;;;;;;;8.52;5.63;;;1.20;71.10;;;;;;5038627;28;20062;-56
2020/12/21 12:26:40;;;;;;;10.85;5.47;;;1.20;70.70;;;;;;5031102;28;20112;-56
2020/12/21 12:29:06;;;;;;;6.53;5.10;;;1.20;70.70;;;;;;5032811;28;20041;-56
2020/12/21 12:31:31;;;;;;;7.03;5.18;;;1.20;71.10;;;;;;5041320;28;20467;-56
2020/12/21 12:33:57;;;;;;;7.32;6.13;;;1.20;71.30;;;;;;5035081;28;20037;-56
2020/12/21 12:36:24;;;;;;;6.80;4.93;;;1.20;71.70;;;;;;5037928;28;20358;-57
2020/12/21 12:38:50;;;;;;;6.80;5.05;;;1.30;71.90;;;;;;5036543;28;20122;-55
2020/12/21 12:41:16;;;;;;;6.57;5.30;;;1.40;71.90;;;;;;5041276;28;20057;-55
2020/12/21 12:43:42;;;;;;;5.97;5.38;;;1.50;71.70;;;;;;5035551;28;20405;-54
2020/12/21 12:46:08;;;;;;;6.05;5.40;;;1.50;70.70;;;;;;5030026;28;20170;-54
2020/12/21 12:48:35;;;;;;;6.93;5.63;;;1.40;70.20;;;;;;5037806;28;20045;-54